sensor_id;sensor_type;location;lat;lon;timestamp;P1;durP1;ratioP1;P2;durP2;ratioP2
14088;SDS011;7120;52.890;6.040;2023-05-14T00:02:19;25.50;;;19.20;;
14088;SDS011;7120;52.890;6.040;2023-05-14T00:04:45;24.63;;;19.83;;
14088;SDS011;7120;52.890;6.040;2023-05-14T00:07:10;25.37;;;20.20;;
14088;SDS011;7120;52.890;6.040;2023-05-14T00:09:36;24.30;;;19.20;;
14088;SDS011;7120;52.890;6.040;2023-05-14T00:12:01;21.10;;;18.90;;
14088;SDS011;7120;52.890;6.040;2023-05-14T00:14:26;22.97;;;18.90;;
14088;SDS011;7120;52.890;6.040;2023-05-14T00:16:52;23.30;;;18.53;;
14088;SDS011;7120;52.890;6.040;2023-05-14T00:19:17;24.00;;;18.80;;
14088;SDS011;7120;52.890;6.040;2023-05-14T00:21:42;20.30;;;18.20;;
14088;SDS011;7120;52.890;6.040;2023-05-14T00:24:08;21.47;;;19.23;;
14088;SDS011;7120;52.890;6.040;2023-05-14T00:26:33;22.90;;;18.97;;
14088;SDS011;7120;52.890;6.040;2023-05-14T00:28:59;20.90;;;18.47;;
14088;SDS011;7120;52.890;6.040;2023-05-14T00:31:24;27.53;;;17.87;;
14088;SDS011;7120;52.890;6.040;2023-05-14T00:33:50;21.57;;;17.67;;
14088;SDS011;7120;52.890;6.040;2023-05-14T00:36:15;21.17;;;18.00;;
14088;SDS011;7120;52.890;6.040;2023-05-14T00:38:41;20.30;;;17.93;;
14088;SDS011;7120;52.890;6.040;2023-05-14T00:41:06;20.03;;;17.67;;
14088;SDS011;7120;52.890;6.040;2023-05-14T00:43:31;21.83;;;17.67;;
14088;SDS011;7120;52.890;6.040;2023-05-14T00:45:57;20.63;;;17.10;;
14088;SDS011;7120;52.890;6.040;2023-05-14T00:48:23;21.90;;;18.17;;
14088;SDS011;7120;52.890;6.040;2023-05-14T00:50:48;22.03;;;16.83;;
14088;SDS011;7120;52.890;6.040;2023-05-14T00:53:15;25.50;;;17.43;;
14088;SDS011;7120;52.890;6.040;2023-05-14T00:55:41;21.63;;;17.37;;
14088;SDS011;7120;52.890;6.040;2023-05-14T00:58:08;21.83;;;17.23;;
14088;SDS011;7120;52.890;6.040;2023-05-14T01:00:35;21.20;;;16.20;;
14088;SDS011;7120;52.890;6.040;2023-05-14T01:03:02;23.00;;;16.70;;
14088;SDS011;7120;52.890;6.040;2023-05-14T01:05:35;24.87;;;17.47;;
14088;SDS011;7120;52.890;6.040;2023-05-14T01:11:02;19.10;;;16.80;;
14088;SDS011;7120;52.890;6.040;2023-05-14T01:16:06;22.57;;;17.00;;
14088;SDS011;7120;52.890;6.040;2023-05-14T01:18:37;22.03;;;17.53;;
14088;SDS011;7120;52.890;6.040;2023-05-14T01:21:10;21.27;;;17.20;;
14088;SDS011;7120;52.890;6.040;2023-05-14T01:23:44;22.60;;;17.57;;
14088;SDS011;7120;52.890;6.040;2023-05-14T01:26:09;23.80;;;17.80;;
14088;SDS011;7120;52.890;6.040;2023-05-14T01:28:34;19.23;;;17.13;;
14088;SDS011;7120;52.890;6.040;2023-05-14T01:31:06;19.80;;;16.80;;
14088;SDS011;7120;52.890;6.040;2023-05-14T01:33:36;22.33;;;18.50;;
14088;SDS011;7120;52.890;6.040;2023-05-14T01:36:03;24.17;;;18.53;;
14088;SDS011;7120;52.890;6.040;2023-05-14T01:38:29;20.07;;;17.57;;
14088;SDS011;7120;52.890;6.040;2023-05-14T01:40:57;24.13;;;18.93;;
14088;SDS011;7120;52.890;6.040;2023-05-14T01:43:24;21.07;;;18.83;;
14088;SDS011;7120;52.890;6.040;2023-05-14T01:45:49;24.17;;;19.13;;
14088;SDS011;7120;52.890;6.040;2023-05-14T01:48:15;23.07;;;18.87;;
14088;SDS011;7120;52.890;6.040;2023-05-14T01:50:40;21.53;;;18.50;;
14088;SDS011;7120;52.890;6.040;2023-05-14T01:53:05;24.30;;;19.70;;
14088;SDS011;7120;52.890;6.040;2023-05-14T01:55:31;25.63;;;20.57;;
14088;SDS011;7120;52.890;6.040;2023-05-14T01:57:56;22.80;;;20.17;;
14088;SDS011;7120;52.890;6.040;2023-05-14T02:00:22;24.83;;;21.23;;
14088;SDS011;7120;52.890;6.040;2023-05-14T02:02:49;29.90;;;21.50;;
14088;SDS011;7120;52.890;6.040;2023-05-14T02:05:15;29.87;;;21.40;;
14088;SDS011;7120;52.890;6.040;2023-05-14T02:07:40;28.70;;;21.07;;
14088;SDS011;7120;52.890;6.040;2023-05-14T02:10:06;29.53;;;20.20;;
14088;SDS011;7120;52.890;6.040;2023-05-14T02:12:32;29.77;;;20.70;;
14088;SDS011;7120;52.890;6.040;2023-05-14T02:14:57;29.50;;;21.07;;
14088;SDS011;7120;52.890;6.040;2023-05-14T02:17:23;28.50;;;21.93;;
14088;SDS011;7120;52.890;6.040;2023-05-14T02:19:49;29.47;;;21.80;;
14088;SDS011;7120;52.890;6.040;2023-05-14T02:22:15;30.07;;;21.90;;
14088;SDS011;7120;52.890;6.040;2023-05-14T02:24:40;28.63;;;21.47;;
14088;SDS011;7120;52.890;6.040;2023-05-14T02:27:05;27.03;;;21.53;;
14088;SDS011;7120;52.890;6.040;2023-05-14T02:29:31;27.67;;;22.13;;
14088;SDS011;7120;52.890;6.040;2023-05-14T02:31:56;27.23;;;22.73;;
14088;SDS011;7120;52.890;6.040;2023-05-14T02:34:22;30.07;;;22.87;;
14088;SDS011;7120;52.890;6.040;2023-05-14T02:36:47;30.10;;;22.53;;
14088;SDS011;7120;52.890;6.040;2023-05-14T02:39:13;27.00;;;21.50;;
14088;SDS011;7120;52.890;6.040;2023-05-14T02:41:38;29.90;;;22.73;;
14088;SDS011;7120;52.890;6.040;2023-05-14T02:44:03;33.37;;;23.97;;
14088;SDS011;7120;52.890;6.040;2023-05-14T02:46:29;31.27;;;23.07;;
14088;SDS011;7120;52.890;6.040;2023-05-14T02:48:55;32.67;;;23.53;;
14088;SDS011;7120;52.890;6.040;2023-05-14T02:51:21;31.93;;;23.37;;
14088;SDS011;7120;52.890;6.040;2023-05-14T02:53:46;31.93;;;25.13;;
14088;SDS011;7120;52.890;6.040;2023-05-14T02:56:12;33.67;;;23.83;;
14088;SDS011;7120;52.890;6.040;2023-05-14T02:58:37;34.83;;;23.70;;
14088;SDS011;7120;52.890;6.040;2023-05-14T03:01:03;35.97;;;25.40;;
14088;SDS011;7120;52.890;6.040;2023-05-14T03:03:28;36.17;;;25.17;;
14088;SDS011;7120;52.890;6.040;2023-05-14T03:05:54;35.17;;;25.43;;
14088;SDS011;7120;52.890;6.040;2023-05-14T03:08:20;35.77;;;25.03;;
14088;SDS011;7120;52.890;6.040;2023-05-14T03:10:45;37.40;;;24.77;;
14088;SDS011;7120;52.890;6.040;2023-05-14T03:13:10;39.90;;;26.10;;
14088;SDS011;7120;52.890;6.040;2023-05-14T03:15:36;40.70;;;25.83;;
14088;SDS011;7120;52.890;6.040;2023-05-14T03:18:01;44.27;;;27.47;;
14088;SDS011;7120;52.890;6.040;2023-05-14T03:20:26;43.13;;;26.27;;
14088;SDS011;7120;52.890;6.040;2023-05-14T03:22:52;41.33;;;26.30;;
14088;SDS011;7120;52.890;6.040;2023-05-14T03:25:20;43.90;;;26.93;;
14088;SDS011;7120;52.890;6.040;2023-05-14T03:27:45;42.47;;;26.80;;
14088;SDS011;7120;52.890;6.040;2023-05-14T03:30:11;40.17;;;25.67;;
14088;SDS011;7120;52.890;6.040;2023-05-14T03:32:36;43.73;;;27.03;;
14088;SDS011;7120;52.890;6.040;2023-05-14T03:35:02;44.10;;;26.50;;
14088;SDS011;7120;52.890;6.040;2023-05-14T03:37:27;50.60;;;27.33;;
14088;SDS011;7120;52.890;6.040;2023-05-14T03:39:52;47.93;;;29.23;;
14088;SDS011;7120;52.890;6.040;2023-05-14T03:42:18;48.07;;;28.43;;
14088;SDS011;7120;52.890;6.040;2023-05-14T03:44:43;40.10;;;26.23;;
14088;SDS011;7120;52.890;6.040;2023-05-14T03:47:09;47.83;;;27.17;;
14088;SDS011;7120;52.890;6.040;2023-05-14T03:49:34;49.47;;;28.33;;
14088;SDS011;7120;52.890;6.040;2023-05-14T03:52:00;51.30;;;29.27;;
14088;SDS011;7120;52.890;6.040;2023-05-14T03:54:25;58.80;;;29.43;;
14088;SDS011;7120;52.890;6.040;2023-05-14T03:56:50;50.50;;;28.07;;
14088;SDS011;7120;52.890;6.040;2023-05-14T03:59:16;51.83;;;28.27;;
14088;SDS011;7120;52.890;6.040;2023-05-14T04:01:42;50.47;;;28.60;;
14088;SDS011;7120;52.890;6.040;2023-05-14T04:04:07;49.73;;;27.33;;
14088;SDS011;7120;52.890;6.040;2023-05-14T04:06:33;52.17;;;28.27;;
14088;SDS011;7120;52.890;6.040;2023-05-14T04:08:58;50.53;;;27.50;;
14088;SDS011;7120;52.890;6.040;2023-05-14T04:11:23;54.17;;;27.53;;
14088;SDS011;7120;52.890;6.040;2023-05-14T04:13:49;46.87;;;27.40;;
14088;SDS011;7120;52.890;6.040;2023-05-14T04:16:14;42.63;;;27.03;;
14088;SDS011;7120;52.890;6.040;2023-05-14T04:18:39;47.97;;;27.33;;
14088;SDS011;7120;52.890;6.040;2023-05-14T04:21:05;46.57;;;28.10;;
14088;SDS011;7120;52.890;6.040;2023-05-14T04:23:30;47.90;;;26.40;;
14088;SDS011;7120;52.890;6.040;2023-05-14T04:25:56;45.97;;;27.33;;
14088;SDS011;7120;52.890;6.040;2023-05-14T04:28:22;49.63;;;26.83;;
14088;SDS011;7120;52.890;6.040;2023-05-14T04:30:47;44.93;;;26.93;;
14088;SDS011;7120;52.890;6.040;2023-05-14T04:33:13;41.20;;;25.77;;
14088;SDS011;7120;52.890;6.040;2023-05-14T04:35:38;45.80;;;27.63;;
14088;SDS011;7120;52.890;6.040;2023-05-14T04:38:03;43.90;;;26.67;;
14088;SDS011;7120;52.890;6.040;2023-05-14T04:40:29;46.37;;;26.67;;
14088;SDS011;7120;52.890;6.040;2023-05-14T04:42:55;40.53;;;27.10;;
14088;SDS011;7120;52.890;6.040;2023-05-14T04:45:21;41.43;;;24.93;;
14088;SDS011;7120;52.890;6.040;2023-05-14T04:47:46;38.30;;;24.47;;
14088;SDS011;7120;52.890;6.040;2023-05-14T04:50:11;33.93;;;23.83;;
14088;SDS011;7120;52.890;6.040;2023-05-14T04:52:37;34.17;;;22.30;;
14088;SDS011;7120;52.890;6.040;2023-05-14T04:55:03;33.50;;;21.23;;
14088;SDS011;7120;52.890;6.040;2023-05-14T04:57:28;29.23;;;20.57;;
14088;SDS011;7120;52.890;6.040;2023-05-14T04:59:53;29.40;;;20.53;;
14088;SDS011;7120;52.890;6.040;2023-05-14T05:02:19;29.27;;;19.20;;
14088;SDS011;7120;52.890;6.040;2023-05-14T05:04:44;27.00;;;18.87;;
14088;SDS011;7120;52.890;6.040;2023-05-14T05:07:11;28.33;;;18.20;;
14088;SDS011;7120;52.890;6.040;2023-05-14T05:09:37;28.13;;;17.63;;
14088;SDS011;7120;52.890;6.040;2023-05-14T05:12:02;27.10;;;17.80;;
14088;SDS011;7120;52.890;6.040;2023-05-14T05:14:28;26.07;;;17.23;;
14088;SDS011;7120;52.890;6.040;2023-05-14T05:16:53;24.47;;;17.67;;
14088;SDS011;7120;52.890;6.040;2023-05-14T05:19:19;28.43;;;18.43;;
14088;SDS011;7120;52.890;6.040;2023-05-14T05:21:44;22.07;;;16.40;;
14088;SDS011;7120;52.890;6.040;2023-05-14T05:24:09;24.27;;;17.40;;
14088;SDS011;7120;52.890;6.040;2023-05-14T05:26:35;29.57;;;16.00;;
14088;SDS011;7120;52.890;6.040;2023-05-14T05:29:01;26.37;;;15.57;;
14088;SDS011;7120;52.890;6.040;2023-05-14T05:31:27;22.17;;;16.23;;
14088;SDS011;7120;52.890;6.040;2023-05-14T05:33:53;22.53;;;15.17;;
14088;SDS011;7120;52.890;6.040;2023-05-14T05:36:19;21.57;;;15.97;;
14088;SDS011;7120;52.890;6.040;2023-05-14T05:38:44;22.70;;;15.13;;
14088;SDS011;7120;52.890;6.040;2023-05-14T05:41:09;24.43;;;14.30;;
14088;SDS011;7120;52.890;6.040;2023-05-14T05:43:35;23.20;;;14.40;;
14088;SDS011;7120;52.890;6.040;2023-05-14T05:46:00;22.93;;;14.27;;
14088;SDS011;7120;52.890;6.040;2023-05-14T05:48:26;19.60;;;14.10;;
14088;SDS011;7120;52.890;6.040;2023-05-14T05:50:52;19.07;;;13.10;;
14088;SDS011;7120;52.890;6.040;2023-05-14T05:53:17;20.83;;;13.10;;
14088;SDS011;7120;52.890;6.040;2023-05-14T05:55:43;21.30;;;13.37;;
14088;SDS011;7120;52.890;6.040;2023-05-14T05:58:08;24.40;;;13.03;;
14088;SDS011;7120;52.890;6.040;2023-05-14T06:00:33;15.40;;;12.40;;
14088;SDS011;7120;52.890;6.040;2023-05-14T06:02:59;18.80;;;11.67;;
14088;SDS011;7120;52.890;6.040;2023-05-14T06:05:24;17.33;;;12.00;;
14088;SDS011;7120;52.890;6.040;2023-05-14T06:07:50;22.00;;;12.90;;
14088;SDS011;7120;52.890;6.040;2023-05-14T06:10:17;17.03;;;12.43;;
14088;SDS011;7120;52.890;6.040;2023-05-14T06:12:43;18.93;;;12.60;;
14088;SDS011;7120;52.890;6.040;2023-05-14T06:15:08;18.83;;;12.10;;
14088;SDS011;7120;52.890;6.040;2023-05-14T06:17:34;15.17;;;12.13;;
14088;SDS011;7120;52.890;6.040;2023-05-14T06:19:59;23.53;;;12.87;;
14088;SDS011;7120;52.890;6.040;2023-05-14T06:22:24;14.53;;;12.17;;
14088;SDS011;7120;52.890;6.040;2023-05-14T06:24:50;19.07;;;12.07;;
14088;SDS011;7120;52.890;6.040;2023-05-14T06:27:15;20.53;;;12.67;;
14088;SDS011;7120;52.890;6.040;2023-05-14T06:29:41;17.93;;;12.13;;
14088;SDS011;7120;52.890;6.040;2023-05-14T06:32:06;17.93;;;11.57;;
14088;SDS011;7120;52.890;6.040;2023-05-14T06:34:32;15.53;;;11.17;;
14088;SDS011;7120;52.890;6.040;2023-05-14T06:36:58;17.00;;;11.53;;
14088;SDS011;7120;52.890;6.040;2023-05-14T06:39:24;14.17;;;10.77;;
14088;SDS011;7120;52.890;6.040;2023-05-14T06:41:49;16.07;;;9.77;;
14088;SDS011;7120;52.890;6.040;2023-05-14T06:44:15;16.20;;;10.27;;
14088;SDS011;7120;52.890;6.040;2023-05-14T06:46:42;16.20;;;10.40;;
14088;SDS011;7120;52.890;6.040;2023-05-14T06:49:07;13.90;;;10.20;;
14088;SDS011;7120;52.890;6.040;2023-05-14T06:51:32;16.73;;;10.67;;
14088;SDS011;7120;52.890;6.040;2023-05-14T06:53:59;16.87;;;10.13;;
14088;SDS011;7120;52.890;6.040;2023-05-14T06:56:24;16.27;;;10.07;;
14088;SDS011;7120;52.890;6.040;2023-05-14T06:58:50;13.83;;;10.13;;
14088;SDS011;7120;52.890;6.040;2023-05-14T07:01:15;16.17;;;11.47;;
14088;SDS011;7120;52.890;6.040;2023-05-14T07:03:41;17.33;;;12.57;;
14088;SDS011;7120;52.890;6.040;2023-05-14T07:06:06;15.23;;;11.70;;
14088;SDS011;7120;52.890;6.040;2023-05-14T07:08:32;15.10;;;11.03;;
14088;SDS011;7120;52.890;6.040;2023-05-14T07:10:57;14.00;;;10.93;;
14088;SDS011;7120;52.890;6.040;2023-05-14T07:13:23;12.80;;;9.83;;
14088;SDS011;7120;52.890;6.040;2023-05-14T07:15:52;13.00;;;8.67;;
14088;SDS011;7120;52.890;6.040;2023-05-14T07:18:19;12.20;;;8.43;;
14088;SDS011;7120;52.890;6.040;2023-05-14T07:20:45;9.63;;;8.30;;
14088;SDS011;7120;52.890;6.040;2023-05-14T07:23:10;11.17;;;7.73;;
14088;SDS011;7120;52.890;6.040;2023-05-14T07:25:36;10.37;;;7.43;;
14088;SDS011;7120;52.890;6.040;2023-05-14T07:28:01;11.90;;;6.70;;
14088;SDS011;7120;52.890;6.040;2023-05-14T07:30:26;8.40;;;6.40;;
14088;SDS011;7120;52.890;6.040;2023-05-14T07:32:52;13.00;;;6.40;;
14088;SDS011;7120;52.890;6.040;2023-05-14T07:35:17;7.93;;;5.80;;
14088;SDS011;7120;52.890;6.040;2023-05-14T07:37:42;12.63;;;6.03;;
14088;SDS011;7120;52.890;6.040;2023-05-14T07:40:08;11.17;;;5.50;;
14088;SDS011;7120;52.890;6.040;2023-05-14T07:42:34;16.87;;;6.20;;
14088;SDS011;7120;52.890;6.040;2023-05-14T07:44:59;11.13;;;5.90;;
14088;SDS011;7120;52.890;6.040;2023-05-14T07:47:25;9.37;;;5.37;;
14088;SDS011;7120;52.890;6.040;2023-05-14T07:49:53;10.53;;;5.50;;
14088;SDS011;7120;52.890;6.040;2023-05-14T07:52:21;8.00;;;6.10;;
14088;SDS011;7120;52.890;6.040;2023-05-14T07:54:46;10.27;;;6.00;;
14088;SDS011;7120;52.890;6.040;2023-05-14T07:57:12;13.57;;;6.47;;
14088;SDS011;7120;52.890;6.040;2023-05-14T07:59:37;10.60;;;6.60;;
14088;SDS011;7120;52.890;6.040;2023-05-14T08:02:02;9.73;;;6.73;;
14088;SDS011;7120;52.890;6.040;2023-05-14T08:04:28;11.20;;;7.40;;
14088;SDS011;7120;52.890;6.040;2023-05-14T08:06:53;10.83;;;7.03;;
14088;SDS011;7120;52.890;6.040;2023-05-14T08:09:20;14.47;;;7.03;;
14088;SDS011;7120;52.890;6.040;2023-05-14T08:11:45;7.87;;;6.03;;
14088;SDS011;7120;52.890;6.040;2023-05-14T08:14:11;10.17;;;5.60;;
14088;SDS011;7120;52.890;6.040;2023-05-14T08:16:36;9.27;;;5.20;;
14088;SDS011;7120;52.890;6.040;2023-05-14T08:19:02;10.97;;;6.00;;
14088;SDS011;7120;52.890;6.040;2023-05-14T08:21:28;8.00;;;5.83;;
14088;SDS011;7120;52.890;6.040;2023-05-14T08:23:53;10.60;;;6.30;;
14088;SDS011;7120;52.890;6.040;2023-05-14T08:26:18;15.13;;;6.10;;
14088;SDS011;7120;52.890;6.040;2023-05-14T08:28:44;9.40;;;6.00;;
14088;SDS011;7120;52.890;6.040;2023-05-14T08:31:09;10.97;;;6.27;;
14088;SDS011;7120;52.890;6.040;2023-05-14T08:33:34;13.70;;;6.40;;
14088;SDS011;7120;52.890;6.040;2023-05-14T08:36:00;9.80;;;6.87;;
14088;SDS011;7120;52.890;6.040;2023-05-14T08:38:25;13.10;;;5.87;;
14088;SDS011;7120;52.890;6.040;2023-05-14T08:40:56;10.63;;;6.20;;
14088;SDS011;7120;52.890;6.040;2023-05-14T08:43:24;9.63;;;5.83;;
14088;SDS011;7120;52.890;6.040;2023-05-14T08:45:56;11.67;;;6.27;;
14088;SDS011;7120;52.890;6.040;2023-05-14T08:48:25;9.53;;;6.40;;
14088;SDS011;7120;52.890;6.040;2023-05-14T08:50:56;14.70;;;7.93;;
14088;SDS011;7120;52.890;6.040;2023-05-14T08:53:22;9.63;;;7.57;;
14088;SDS011;7120;52.890;6.040;2023-05-14T08:55:49;11.97;;;7.23;;
14088;SDS011;7120;52.890;6.040;2023-05-14T08:58:15;14.77;;;8.30;;
14088;SDS011;7120;52.890;6.040;2023-05-14T09:00:41;13.37;;;7.87;;
14088;SDS011;7120;52.890;6.040;2023-05-14T09:03:06;11.53;;;7.53;;
14088;SDS011;7120;52.890;6.040;2023-05-14T09:05:32;12.97;;;8.47;;
14088;SDS011;7120;52.890;6.040;2023-05-14T09:07:58;12.53;;;7.33;;
14088;SDS011;7120;52.890;6.040;2023-05-14T09:10:23;10.67;;;7.50;;
14088;SDS011;7120;52.890;6.040;2023-05-14T09:12:49;14.80;;;8.00;;
14088;SDS011;7120;52.890;6.040;2023-05-14T09:15:15;10.83;;;7.23;;
14088;SDS011;7120;52.890;6.040;2023-05-14T09:17:41;11.20;;;7.13;;
14088;SDS011;7120;52.890;6.040;2023-05-14T09:20:07;11.10;;;6.67;;
14088;SDS011;7120;52.890;6.040;2023-05-14T09:22:33;11.30;;;7.20;;
14088;SDS011;7120;52.890;6.040;2023-05-14T09:27:28;9.97;;;6.43;;
14088;SDS011;7120;52.890;6.040;2023-05-14T09:29:55;9.73;;;6.40;;
14088;SDS011;7120;52.890;6.040;2023-05-14T09:32:20;10.93;;;6.07;;
14088;SDS011;7120;52.890;6.040;2023-05-14T09:34:45;9.67;;;5.97;;
14088;SDS011;7120;52.890;6.040;2023-05-14T09:37:11;17.67;;;8.57;;
14088;SDS011;7120;52.890;6.040;2023-05-14T09:39:36;9.00;;;6.57;;
14088;SDS011;7120;52.890;6.040;2023-05-14T09:42:02;14.30;;;7.50;;
14088;SDS011;7120;52.890;6.040;2023-05-14T09:44:28;9.27;;;6.47;;
14088;SDS011;7120;52.890;6.040;2023-05-14T09:46:53;8.63;;;5.77;;
14088;SDS011;7120;52.890;6.040;2023-05-14T09:49:19;10.47;;;6.63;;
14088;SDS011;7120;52.890;6.040;2023-05-14T09:51:45;8.63;;;6.50;;
14088;SDS011;7120;52.890;6.040;2023-05-14T09:54:12;10.02;;;5.93;;
14088;SDS011;7120;52.890;6.040;2023-05-14T09:56:37;11.40;;;6.07;;
14088;SDS011;7120;52.890;6.040;2023-05-14T09:59:03;10.65;;;6.43;;
14088;SDS011;7120;52.890;6.040;2023-05-14T10:01:29;10.18;;;5.63;;
14088;SDS011;7120;52.890;6.040;2023-05-14T10:03:56;10.52;;;6.40;;
14088;SDS011;7120;52.890;6.040;2023-05-14T10:06:23;9.57;;;6.95;;
14088;SDS011;7120;52.890;6.040;2023-05-14T10:09:01;13.77;;;7.30;;
14088;SDS011;7120;52.890;6.040;2023-05-14T10:11:29;11.03;;;6.80;;
14088;SDS011;7120;52.890;6.040;2023-05-14T10:14:40;6.97;;;6.10;;
14088;SDS011;7120;52.890;6.040;2023-05-14T10:16:50;10.43;;;6.00;;
14088;SDS011;7120;52.890;6.040;2023-05-14T10:19:19;10.20;;;6.47;;
14088;SDS011;7120;52.890;6.040;2023-05-14T10:21:46;11.73;;;6.10;;
14088;SDS011;7120;52.890;6.040;2023-05-14T10:24:17;9.70;;;5.93;;
14088;SDS011;7120;52.890;6.040;2023-05-14T10:26:43;6.77;;;5.67;;
14088;SDS011;7120;52.890;6.040;2023-05-14T10:29:09;9.43;;;5.70;;
14088;SDS011;7120;52.890;6.040;2023-05-14T10:31:51;11.15;;;6.15;;
14088;SDS011;7120;52.890;6.040;2023-05-14T10:34:31;6.20;;;5.60;;
14088;SDS011;7120;52.890;6.040;2023-05-14T10:36:58;8.85;;;5.55;;
14088;SDS011;7120;52.890;6.040;2023-05-14T10:39:38;8.65;;;6.10;;
14088;SDS011;7120;52.890;6.040;2023-05-14T10:42:05;10.68;;;5.90;;
14088;SDS011;7120;52.890;6.040;2023-05-14T10:44:32;8.63;;;5.83;;
14088;SDS011;7120;52.890;6.040;2023-05-14T10:47:00;10.43;;;6.13;;
14088;SDS011;7120;52.890;6.040;2023-05-14T10:49:26;8.45;;;5.70;;
14088;SDS011;7120;52.890;6.040;2023-05-14T10:51:52;12.75;;;5.95;;
14088;SDS011;7120;52.890;6.040;2023-05-14T10:54:18;10.63;;;6.40;;
14088;SDS011;7120;52.890;6.040;2023-05-14T10:56:46;10.77;;;5.90;;
14088;SDS011;7120;52.890;6.040;2023-05-14T10:59:11;9.70;;;5.97;;
14088;SDS011;7120;52.890;6.040;2023-05-14T11:01:39;8.55;;;5.43;;
14088;SDS011;7120;52.890;6.040;2023-05-14T11:04:04;10.25;;;6.03;;
14088;SDS011;7120;52.890;6.040;2023-05-14T11:06:30;8.48;;;6.20;;
14088;SDS011;7120;52.890;6.040;2023-05-14T11:08:57;7.00;;;5.63;;
14088;SDS011;7120;52.890;6.040;2023-05-14T11:11:25;8.48;;;5.22;;
14088;SDS011;7120;52.890;6.040;2023-05-14T11:13:52;8.02;;;5.88;;
14088;SDS011;7120;52.890;6.040;2023-05-14T11:16:19;6.72;;;5.28;;
14088;SDS011;7120;52.890;6.040;2023-05-14T11:18:46;10.13;;;6.30;;
14088;SDS011;7120;52.890;6.040;2023-05-14T11:21:11;9.05;;;6.38;;
14088;SDS011;7120;52.890;6.040;2023-05-14T11:23:37;8.82;;;6.60;;
14088;SDS011;7120;52.890;6.040;2023-05-14T11:26:02;7.97;;;6.43;;
14088;SDS011;7120;52.890;6.040;2023-05-14T11:28:28;8.82;;;5.35;;
14088;SDS011;7120;52.890;6.040;2023-05-14T11:30:53;8.98;;;5.65;;
14088;SDS011;7120;52.890;6.040;2023-05-14T11:33:19;8.27;;;5.32;;
14088;SDS011;7120;52.890;6.040;2023-05-14T11:35:45;8.35;;;5.55;;
14088;SDS011;7120;52.890;6.040;2023-05-14T11:38:18;7.97;;;5.65;;
14088;SDS011;7120;52.890;6.040;2023-05-14T11:40:53;6.85;;;5.93;;
14088;SDS011;7120;52.890;6.040;2023-05-14T11:43:19;7.72;;;5.63;;
14088;SDS011;7120;52.890;6.040;2023-05-14T11:45:50;7.82;;;6.10;;
14088;SDS011;7120;52.890;6.040;2023-05-14T11:48:17;7.75;;;5.97;;
14088;SDS011;7120;52.890;6.040;2023-05-14T11:50:47;8.45;;;6.18;;
14088;SDS011;7120;52.890;6.040;2023-05-14T11:53:26;8.32;;;5.65;;
14088;SDS011;7120;52.890;6.040;2023-05-14T11:55:53;9.35;;;5.43;;
14088;SDS011;7120;52.890;6.040;2023-05-14T11:58:19;7.53;;;5.63;;
14088;SDS011;7120;52.890;6.040;2023-05-14T12:00:45;10.35;;;5.50;;
14088;SDS011;7120;52.890;6.040;2023-05-14T12:03:14;8.13;;;5.50;;
14088;SDS011;7120;52.890;6.040;2023-05-14T12:05:39;8.35;;;5.22;;
14088;SDS011;7120;52.890;6.040;2023-05-14T12:11:07;6.25;;;5.13;;
14088;SDS011;7120;52.890;6.040;2023-05-14T12:13:33;6.35;;;4.82;;
14088;SDS011;7120;52.890;6.040;2023-05-14T12:16:00;5.82;;;4.55;;
14088;SDS011;7120;52.890;6.040;2023-05-14T12:18:27;7.10;;;4.72;;
14088;SDS011;7120;52.890;6.040;2023-05-14T12:20:57;7.65;;;4.80;;
14088;SDS011;7120;52.890;6.040;2023-05-14T12:23:27;8.20;;;4.70;;
14088;SDS011;7120;52.890;6.040;2023-05-14T12:25:53;7.45;;;5.22;;
14088;SDS011;7120;52.890;6.040;2023-05-14T12:28:19;5.55;;;4.10;;
14088;SDS011;7120;52.890;6.040;2023-05-14T12:30:45;6.28;;;4.85;;
14088;SDS011;7120;52.890;6.040;2023-05-14T12:33:11;6.35;;;4.65;;
14088;SDS011;7120;52.890;6.040;2023-05-14T12:35:37;8.10;;;4.93;;
14088;SDS011;7120;52.890;6.040;2023-05-14T12:38:02;6.20;;;4.80;;
14088;SDS011;7120;52.890;6.040;2023-05-14T12:40:28;5.22;;;4.43;;
14088;SDS011;7120;52.890;6.040;2023-05-14T12:42:54;7.50;;;4.60;;
14088;SDS011;7120;52.890;6.040;2023-05-14T12:45:19;7.72;;;4.57;;
14088;SDS011;7120;52.890;6.040;2023-05-14T12:47:45;7.10;;;4.43;;
14088;SDS011;7120;52.890;6.040;2023-05-14T12:50:10;7.32;;;4.97;;
14088;SDS011;7120;52.890;6.040;2023-05-14T12:52:36;5.38;;;4.72;;
14088;SDS011;7120;52.890;6.040;2023-05-14T12:55:01;7.03;;;4.75;;
14088;SDS011;7120;52.890;6.040;2023-05-14T12:57:27;5.45;;;4.65;;
14088;SDS011;7120;52.890;6.040;2023-05-14T12:59:53;4.93;;;4.00;;
14088;SDS011;7120;52.890;6.040;2023-05-14T13:02:19;10.15;;;4.43;;
14088;SDS011;7120;52.890;6.040;2023-05-14T13:04:45;9.93;;;4.88;;
14088;SDS011;7120;52.890;6.040;2023-05-14T13:07:11;7.15;;;4.43;;
14088;SDS011;7120;52.890;6.040;2023-05-14T13:09:36;7.30;;;4.22;;
14088;SDS011;7120;52.890;6.040;2023-05-14T13:12:01;6.45;;;3.95;;
14088;SDS011;7120;52.890;6.040;2023-05-14T13:14:27;7.60;;;3.92;;
14088;SDS011;7120;52.890;6.040;2023-05-14T13:16:52;5.15;;;3.88;;
14088;SDS011;7120;52.890;6.040;2023-05-14T13:19:18;5.50;;;4.00;;
14088;SDS011;7120;52.890;6.040;2023-05-14T13:21:43;4.50;;;3.85;;
14088;SDS011;7120;52.890;6.040;2023-05-14T13:24:08;8.07;;;4.20;;
14088;SDS011;7120;52.890;6.040;2023-05-14T13:26:34;6.78;;;4.53;;
14088;SDS011;7120;52.890;6.040;2023-05-14T13:29:00;6.97;;;4.07;;
14088;SDS011;7120;52.890;6.040;2023-05-14T13:31:26;6.43;;;4.70;;
14088;SDS011;7120;52.890;6.040;2023-05-14T13:33:51;5.28;;;3.63;;
14088;SDS011;7120;52.890;6.040;2023-05-14T13:36:17;6.68;;;4.10;;
14088;SDS011;7120;52.890;6.040;2023-05-14T13:38:42;4.93;;;4.43;;
14088;SDS011;7120;52.890;6.040;2023-05-14T13:41:09;9.70;;;3.97;;
14088;SDS011;7120;52.890;6.040;2023-05-14T13:43:35;4.65;;;4.10;;
14088;SDS011;7120;52.890;6.040;2023-05-14T13:46:01;6.65;;;4.00;;
14088;SDS011;7120;52.890;6.040;2023-05-14T13:48:28;4.70;;;3.97;;
14088;SDS011;7120;52.890;6.040;2023-05-14T13:50:54;6.25;;;4.80;;
14088;SDS011;7120;52.890;6.040;2023-05-14T13:53:20;6.53;;;4.32;;
14088;SDS011;7120;52.890;6.040;2023-05-14T13:55:47;6.97;;;4.10;;
14088;SDS011;7120;52.890;6.040;2023-05-14T13:58:13;6.55;;;4.47;;
14088;SDS011;7120;52.890;6.040;2023-05-14T14:00:39;4.50;;;3.80;;
14088;SDS011;7120;52.890;6.040;2023-05-14T14:03:05;4.33;;;3.93;;
14088;SDS011;7120;52.890;6.040;2023-05-14T14:05:32;7.17;;;3.57;;
14088;SDS011;7120;52.890;6.040;2023-05-14T14:07:58;5.90;;;3.90;;
14088;SDS011;7120;52.890;6.040;2023-05-14T14:10:23;8.60;;;3.90;;
14088;SDS011;7120;52.890;6.040;2023-05-14T14:12:49;4.40;;;3.77;;
14088;SDS011;7120;52.890;6.040;2023-05-14T14:15:15;5.93;;;3.50;;
14088;SDS011;7120;52.890;6.040;2023-05-14T14:17:40;7.73;;;3.40;;
14088;SDS011;7120;52.890;6.040;2023-05-14T14:22:34;4.38;;;3.92;;
14088;SDS011;7120;52.890;6.040;2023-05-14T14:25:00;5.28;;;3.42;;
14088;SDS011;7120;52.890;6.040;2023-05-14T14:27:26;4.30;;;3.60;;
14088;SDS011;7120;52.890;6.040;2023-05-14T14:29:52;7.03;;;3.97;;
14088;SDS011;7120;52.890;6.040;2023-05-14T14:32:17;7.00;;;3.53;;
14088;SDS011;7120;52.890;6.040;2023-05-14T14:34:43;4.53;;;3.57;;
14088;SDS011;7120;52.890;6.040;2023-05-14T14:37:08;4.40;;;3.60;;
14088;SDS011;7120;52.890;6.040;2023-05-14T14:39:34;5.63;;;3.43;;
14088;SDS011;7120;52.890;6.040;2023-05-14T14:41:59;5.83;;;3.80;;
14088;SDS011;7120;52.890;6.040;2023-05-14T14:44:24;6.43;;;3.67;;
14088;SDS011;7120;52.890;6.040;2023-05-14T14:46:50;3.87;;;3.47;;
14088;SDS011;7120;52.890;6.040;2023-05-14T14:49:15;4.65;;;4.07;;
14088;SDS011;7120;52.890;6.040;2023-05-14T14:51:40;5.30;;;4.43;;
14088;SDS011;7120;52.890;6.040;2023-05-14T14:54:06;4.77;;;3.80;;